Time;durP1;ratioP1;P1;durP2;ratioP2;P2;SDS_P1;SDS_P2;PMS_P1;PMS_P2;Temp;Humidity;BMP_temperature;BMP_pressure;BME280_temperature;BME280_humidity;BME280_pressure;Samples;Min_cycle;Max_cycle;Signal;HPM_P1;HPM_P2
2022/06/22 00:02:07;;;;;;;3.47;1.30;;;11.50;60.80;;;;;;5052087;28;20200;-54
2022/06/22 00:04:44;;;;;;;2.30;1.40;;;11.50;60.90;;;;;;5051747;28;20222;-48
2022/06/22 00:07:19;;;;;;;2.15;1.10;;;11.50;60.90;;;;;;5051493;28;20206;-49
2022/06/22 00:09:54;;;;;;;1.67;1.27;;;11.60;60.90;;;;;;5051402;28;20214;-56
2022/06/22 00:12:27;;;;;;;2.67;1.60;;;11.60;60.80;;;;;;5052029;28;20195;-54
2022/06/22 00:15:00;;;;;;;2.28;1.50;;;11.60;60.70;;;;;;5050791;28;20196;-56
2022/06/22 00:17:37;;;;;;;1.45;1.20;;;11.60;60.80;;;;;;5066402;28;20190;-50
2022/06/22 00:20:14;;;;;;;2.53;1.48;;;11.70;61.60;;;;;;5070757;28;20222;-52
2022/06/22 00:22:51;;;;;;;2.03;1.40;;;11.70;60.80;;;;;;5052159;28;20565;-57
2022/06/22 00:25:28;;;;;;;1.55;1.27;;;11.70;60.80;;;;;;5050626;28;20576;-52
2022/06/22 00:28:20;;;;;;;2.08;1.50;;;11.70;60.90;;;;;;5051307;28;20222;-51
2022/06/22 00:30:51;;;;;;;2.28;1.20;;;11.70;60.90;;;;;;5051266;28;20589;-49
2022/06/22 00:33:26;;;;;;;3.38;1.40;;;11.80;61.10;;;;;;5050748;28;20192;-53
2022/06/22 00:36:13;;;;;;;3.20;1.67;;;11.80;61.10;;;;;;5051333;28;20199;-50
2022/06/22 00:38:44;;;;;;;3.67;1.85;;;11.80;61.20;;;;;;5030588;28;20200;-50
2022/06/22 00:41:23;;;;;;;2.35;1.40;;;11.90;61.20;;;;;;5035392;28;20199;-54
2022/06/22 00:43:55;;;;;;;2.60;1.92;;;11.90;61.30;;;;;;5050112;28;20265;-54
2022/06/22 00:46:27;;;;;;;4.50;2.33;;;11.90;62.10;;;;;;5050407;28;20198;-54
2022/06/22 00:48:58;;;;;;;2.60;1.80;;;11.90;61.30;;;;;;5065576;28;20643;-49
2022/06/22 00:51:37;;;;;;;4.20;2.13;;;12.00;61.30;;;;;;5063803;28;20573;-52
2022/06/22 00:54:12;;;;;;;4.18;2.15;;;12.00;61.40;;;;;;5050439;28;20214;-54
2022/06/22 00:56:55;;;;;;;3.05;1.83;;;12.00;61.40;;;;;;5059169;28;20190;-52
2022/06/22 00:59:29;;;;;;;2.80;1.85;;;12.10;61.30;;;;;;5070503;28;20230;-54
2022/06/22 01:02:07;;;;;;;2.70;1.77;;;12.10;61.20;;;;;;5059559;28;20194;-54
2022/06/22 01:04:42;;;;;;;2.40;2.20;;;12.10;61.10;;;;;;5050408;28;20195;-54
2022/06/22 01:07:21;;;;;;;2.65;1.70;;;12.10;61.10;;;;;;5050823;28;20558;-56
2022/06/22 01:09:58;;;;;;;2.72;1.98;;;12.20;61.10;;;;;;5050640;28;20234;-51
2022/06/22 01:12:35;;;;;;;2.13;1.65;;;12.20;61.10;;;;;;5049930;28;20190;-52
2022/06/22 01:15:24;;;;;;;4.32;2.40;;;12.20;61.30;;;;;;5049998;28;20198;-49
2022/06/22 01:18:00;;;;;;;4.22;2.38;;;12.20;61.70;;;;;;5050196;28;20197;-51
2022/06/22 01:20:37;;;;;;;3.90;2.03;;;12.30;61.80;;;;;;5050484;28;20219;-52
2022/06/22 01:23:57;;;;;;;4.13;2.35;;;12.40;61.80;;;;;;5050231;28;20195;-54
2022/06/22 01:26:54;;;;;;;2.70;2.15;;;12.40;61.70;;;;;;5050294;28;20195;-54
2022/06/22 01:29:28;;;;;;;3.55;1.85;;;12.40;61.60;;;;;;5034228;28;20235;-53
2022/06/22 01:32:02;;;;;;;2.53;1.70;;;12.40;61.50;;;;;;5034511;28;20204;-50
2022/06/22 01:34:37;;;;;;;3.13;2.05;;;12.40;61.40;;;;;;5035389;28;20208;-51
2022/06/22 01:37:15;;;;;;;2.63;2.10;;;12.50;61.50;;;;;;5054373;28;20666;-54
2022/06/22 01:39:46;;;;;;;2.78;1.80;;;12.50;61.40;;;;;;5053175;28;20786;-58
2022/06/22 01:42:22;;;;;;;3.17;2.10;;;12.60;61.40;;;;;;5053878;28;20192;-50
2022/06/22 01:44:59;;;;;;;2.55;2.00;;;12.60;61.30;;;;;;5054042;28;20231;-54
2022/06/22 01:47:38;;;;;;;3.65;2.40;;;12.60;61.30;;;;;;5053932;28;20210;-52
2022/06/22 01:50:18;;;;;;;2.63;1.98;;;12.60;61.20;;;;;;5053888;28;20219;-53
2022/06/22 01:52:58;;;;;;;3.03;1.85;;;12.60;61.00;;;;;;5053548;28;20755;-55
2022/06/22 01:55:42;;;;;;;2.72;1.73;;;12.70;60.90;;;;;;5052392;28;20191;-50
2022/06/22 01:58:41;;;;;;;3.45;2.25;;;12.70;60.90;;;;;;5053844;28;20200;-49
2022/06/22 02:01:21;;;;;;;4.20;2.00;;;12.80;60.80;;;;;;5053813;28;20196;-52
2022/06/22 02:04:02;;;;;;;3.15;1.92;;;12.70;60.70;;;;;;5054277;28;20667;-50
2022/06/22 02:09:30;;;;;;;2.42;1.85;;;12.80;60.70;;;;;;5054047;28;20296;-53
2022/06/22 02:14:46;;;;;;;3.33;2.05;;;12.90;60.80;;;;;;5052292;28;20196;-49
2022/06/22 02:17:25;;;;;;;2.47;1.90;;;12.90;60.70;;;;;;5033650;28;20200;-50
2022/06/22 02:20:27;;;;;;;2.20;1.90;;;12.90;60.70;;;;;;5046573;28;20215;-50
2022/06/22 02:23:01;;;;;;;3.00;1.90;;;12.90;60.70;;;;;;5052977;28;20198;-53
2022/06/22 02:25:35;;;;;;;3.13;1.92;;;13.00;60.70;;;;;;5053431;28;20199;-50
2022/06/22 02:28:06;;;;;;;3.95;2.10;;;13.00;60.60;;;;;;5052966;28;20564;-51
2022/06/22 02:30:37;;;;;;;2.78;2.00;;;13.00;60.60;;;;;;5053164;28;20561;-51
2022/06/22 02:33:10;;;;;;;3.08;1.80;;;13.00;60.60;;;;;;5053035;28;20792;-50
2022/06/22 02:35:43;;;;;;;2.55;1.77;;;13.00;60.60;;;;;;5051076;28;20828;-49
2022/06/22 02:38:16;;;;;;;2.97;1.60;;;13.10;60.50;;;;;;5049720;28;20257;-49
2022/06/22 02:46:26;;;;;;;3.53;1.90;;;13.20;60.50;;;;;;5052654;28;20252;-50
2022/06/22 02:49:07;;;;;;;3.53;1.83;;;13.20;60.40;;;;;;5052441;28;20226;-50
2022/06/22 02:51:42;;;;;;;2.58;1.55;;;13.30;60.50;;;;;;5052546;28;20207;-56
2022/06/22 02:54:31;;;;;;;2.00;1.75;;;13.30;60.40;;;;;;5052563;28;20191;-53
2022/06/22 02:57:12;;;;;;;1.63;1.35;;;13.30;60.40;;;;;;5052654;28;20200;-50
2022/06/22 02:59:44;;;;;;;2.95;1.67;;;13.40;60.30;;;;;;5052882;28;20215;-53
2022/06/22 03:02:15;;;;;;;2.13;1.60;;;13.40;60.20;;;;;;5052342;28;20195;-52
2022/06/22 03:04:49;;;;;;;3.13;2.20;;;13.40;60.20;;;;;;5052214;28;20195;-53
2022/06/22 03:07:22;;;;;;;2.58;1.60;;;13.50;60.30;;;;;;5052762;28;20205;-52
2022/06/22 03:09:53;;;;;;;3.63;1.48;;;13.50;60.20;;;;;;5052217;28;20227;-55
2022/06/22 03:12:24;;;;;;;1.83;1.45;;;13.50;60.20;;;;;;5052731;28;20682;-56
2022/06/22 03:15:00;;;;;;;2.58;1.60;;;13.60;60.20;;;;;;5052165;28;20191;-55
2022/06/22 03:17:34;;;;;;;3.88;1.85;;;13.60;60.20;;;;;;5052542;28;20233;-54
2022/06/22 03:20:10;;;;;;;2.80;1.67;;;13.60;60.30;;;;;;5067344;28;20214;-55
2022/06/22 03:22:44;;;;;;;1.75;1.65;;;13.60;60.40;;;;;;5072156;28;20201;-52
2022/06/22 03:25:20;;;;;;;2.90;1.90;;;13.70;60.50;;;;;;5072336;28;20651;-57
2022/06/22 03:27:54;;;;;;;2.75;2.00;;;13.70;60.50;;;;;;5071819;28;20194;-52
2022/06/22 03:30:29;;;;;;;2.17;1.80;;;13.70;60.40;;;;;;5071848;28;20230;-52
2022/06/22 03:33:06;;;;;;;3.15;1.70;;;13.80;60.40;;;;;;5062061;28;20206;-55
2022/06/22 03:35:43;;;;;;;2.15;1.80;;;13.80;60.40;;;;;;5052534;28;20203;-54
2022/06/22 03:38:18;;;;;;;3.17;1.80;;;13.80;60.40;;;;;;5051331;28;20751;-61
2022/06/22 03:40:53;;;;;;;2.65;1.58;;;13.90;60.50;;;;;;5051350;28;20219;-52
2022/06/22 03:43:28;;;;;;;2.03;1.42;;;13.90;60.50;;;;;;5051597;28;20564;-57
2022/06/22 03:46:04;;;;;;;2.55;1.67;;;13.90;60.40;;;;;;5052325;28;20221;-55
2022/06/22 03:48:41;;;;;;;3.08;1.85;;;13.90;60.40;;;;;;5051581;28;20199;-53
2022/06/22 03:51:20;;;;;;;3.08;1.60;;;14.00;60.30;;;;;;5050528;28;20566;-54
2022/06/22 03:53:55;;;;;;;3.42;1.80;;;14.00;61.00;;;;;;5052059;28;20187;-53
2022/06/22 03:56:29;;;;;;;3.33;1.73;;;14.10;60.20;;;;;;5051488;28;20201;-58
2022/06/22 03:59:02;;;;;;;2.42;1.67;;;14.10;60.10;;;;;;5051847;28;20232;-53
2022/06/22 04:01:33;;;;;;;2.63;2.08;;;14.10;60.00;;;;;;5051097;28;20192;-56
2022/06/22 04:04:04;;;;;;;6.40;2.38;;;14.10;60.00;;;;;;5051825;28;20192;-54
2022/06/22 04:06:40;;;;;;;2.60;1.60;;;14.20;59.90;;;;;;5050933;28;20195;-53
2022/06/22 04:09:21;;;;;;;2.17;1.60;;;14.20;59.90;;;;;;5056572;28;20222;-55
2022/06/22 04:11:58;;;;;;;2.63;1.55;;;14.20;59.90;;;;;;5070615;28;20191;-55
2022/06/22 04:14:34;;;;;;;3.97;2.03;;;14.20;59.80;;;;;;5070862;28;20202;-56
2022/06/22 04:17:10;;;;;;;3.13;2.00;;;14.20;59.80;;;;;;5070437;28;20198;-53
2022/06/22 04:19:43;;;;;;;4.05;2.58;;;14.20;59.70;;;;;;5058970;28;20681;-49
2022/06/22 04:22:20;;;;;;;3.78;2.90;;;14.30;59.80;;;;;;5070765;28;20191;-50
2022/06/22 04:24:55;;;;;;;5.25;2.83;;;14.30;59.70;;;;;;5065015;28;20561;-49
2022/06/22 04:27:30;;;;;;;3.85;3.00;;;14.30;59.70;;;;;;5070283;28;20199;-51
2022/06/22 04:30:15;;;;;;;4.53;3.35;;;14.30;59.90;;;;;;5070844;28;20226;-50
2022/06/22 04:32:52;;;;;;;6.90;5.10;;;14.30;59.60;;;;;;5031728;28;20235;-50
2022/06/22 04:35:34;;;;;;;6.43;4.75;;;14.30;61.00;;;;;;5045951;28;20655;-51
2022/06/22 04:38:14;;;;;;;7.95;4.53;;;14.40;61.90;;;;;;5050057;28;20214;-52
2022/06/22 04:40:55;;;;;;;5.82;4.90;;;14.40;61.90;;;;;;5050884;28;20219;-53
2022/06/22 04:43:26;;;;;;;6.47;4.38;;;14.40;61.60;;;;;;5055519;28;20209;-52
2022/06/22 04:45:57;;;;;;;8.45;4.00;;;14.50;61.40;;;;;;5052303;28;20253;-51
2022/06/22 04:48:31;;;;;;;5.40;4.38;;;14.50;61.40;;;;;;5051006;28;20561;-53
2022/06/22 04:51:04;;;;;;;6.00;3.88;;;14.50;61.10;;;;;;5050430;28;20227;-51
2022/06/22 04:53:40;;;;;;;8.25;4.97;;;14.50;61.10;;;;;;5050500;28;20195;-53
2022/06/22 04:56:15;;;;;;;5.35;4.55;;;14.50;60.90;;;;;;5050311;28;20194;-58
2022/06/22 04:58:48;;;;;;;6.05;4.25;;;14.50;60.80;;;;;;5050057;28;20206;-53
2022/06/22 05:01:23;;;;;;;5.70;4.00;;;14.50;60.70;;;;;;5030038;28;20201;-52
2022/06/22 05:03:57;;;;;;;5.78;4.13;;;14.50;60.60;;;;;;5030697;28;20286;-53
2022/06/22 05:06:36;;;;;;;4.80;4.07;;;14.50;60.40;;;;;;5035045;28;20206;-53
2022/06/22 05:09:15;;;;;;;4.57;3.60;;;14.50;60.40;;;;;;5051971;28;20207;-53
2022/06/22 05:11:47;;;;;;;5.60;4.13;;;14.50;60.30;;;;;;5049703;28;20199;-58
2022/06/22 05:14:23;;;;;;;6.15;4.75;;;14.50;60.20;;;;;;5049676;28;20200;-52
2022/06/22 05:16:58;;;;;;;6.00;4.43;;;14.50;60.10;;;;;;5050554;28;20195;-52
2022/06/22 05:19:37;;;;;;;7.78;4.07;;;14.50;60.00;;;;;;5050470;28;20211;-52
2022/06/22 05:22:14;;;;;;;5.70;4.20;;;14.50;60.00;;;;;;5049869;28;20202;-57
2022/06/22 05:24:49;;;;;;;5.90;4.38;;;14.50;59.90;;;;;;5050008;28;20195;-60
2022/06/22 05:27:24;;;;;;;6.05;4.07;;;14.50;59.90;;;;;;5050181;28;20199;-59
2022/06/22 05:29:58;;;;;;;5.88;4.13;;;14.50;59.80;;;;;;5049592;28;20230;-56
2022/06/22 05:32:33;;;;;;;5.72;4.28;;;14.50;59.70;;;;;;5049171;28;20195;-59
2022/06/22 05:35:11;;;;;;;6.30;4.25;;;14.40;59.60;;;;;;5050066;28;20210;-54
2022/06/22 05:37:47;;;;;;;6.22;4.30;;;14.40;59.60;;;;;;5049395;28;20206;-54
2022/06/22 05:40:20;;;;;;;6.63;4.47;;;14.40;59.70;;;;;;5049791;28;20584;-54
2022/06/22 05:42:51;;;;;;;6.18;4.15;;;14.40;59.90;;;;;;5050625;28;20203;-62
2022/06/22 05:45:25;;;;;;;5.60;3.90;;;14.40;59.90;;;;;;5050396;28;20199;-59
2022/06/22 05:47:56;;;;;;;5.97;4.25;;;14.40;59.90;;;;;;5050438;28;20196;-52
2022/06/22 05:50:38;;;;;;;6.07;4.43;;;14.40;59.80;;;;;;5049834;28;20723;-54
2022/06/22 05:53:14;;;;;;;7.90;3.97;;;14.30;59.70;;;;;;5050142;28;20210;-54
2022/06/22 05:55:55;;;;;;;5.82;3.95;;;14.30;59.60;;;;;;5050433;28;20693;-55
2022/06/22 05:58:28;;;;;;;5.35;4.25;;;14.30;59.60;;;;;;5049918;28;20199;-54
2022/06/22 06:01:01;;;;;;;4.75;3.78;;;14.30;59.50;;;;;;5050764;28;20219;-57
2022/06/22 06:03:42;;;;;;;6.63;4.30;;;14.30;59.50;;;;;;5049501;28;20198;-58
2022/06/22 06:06:19;;;;;;;6.47;3.78;;;14.30;59.50;;;;;;5046835;28;20313;-58
2022/06/22 06:08:52;;;;;;;7.65;4.43;;;14.30;59.40;;;;;;5049884;28;20195;-60
2022/06/22 06:11:26;;;;;;;5.47;3.88;;;14.20;59.30;;;;;;5049231;28;20560;-57
2022/06/22 06:14:00;;;;;;;6.80;4.43;;;14.20;58.80;;;;;;5060228;28;20207;-57
2022/06/22 06:16:38;;;;;;;5.35;3.42;;;14.20;59.30;;;;;;5055803;28;20603;-54
2022/06/22 06:19:10;;;;;;;6.25;3.70;;;14.20;59.30;;;;;;5053525;28;20215;-58
2022/06/22 06:21:41;;;;;;;5.20;3.70;;;14.10;59.20;;;;;;5054124;28;20191;-53
2022/06/22 06:24:19;;;;;;;7.53;4.70;;;14.10;59.20;;;;;;5053651;28;20218;-55
2022/06/22 06:29:47;;;;;;;6.38;4.05;;;14.10;59.30;;;;;;5053487;28;20222;-58
2022/06/22 06:32:38;;;;;;;6.68;4.25;;;14.00;59.20;;;;;;5065265;28;20198;-55
2022/06/22 06:35:15;;;;;;;6.68;4.72;;;14.00;59.20;;;;;;5073973;28;20655;-61
2022/06/22 06:38:00;;;;;;;7.55;4.80;;;14.00;59.20;;;;;;5058580;28;20200;-56
2022/06/22 06:40:40;;;;;;;9.35;5.30;;;14.00;59.20;;;;;;5053849;28;20883;-57
2022/06/22 06:43:26;;;;;;;8.13;5.13;;;14.00;59.30;;;;;;5053861;28;20196;-58
2022/06/22 06:45:58;;;;;;;7.35;4.68;;;13.90;59.20;;;;;;5053503;28;20203;-59
2022/06/22 06:48:31;;;;;;;7.95;5.63;;;13.90;59.20;;;;;;5052704;28;20207;-59
2022/06/22 06:51:05;;;;;;;9.13;5.72;;;13.90;59.20;;;;;;5054979;28;20599;-60
2022/06/22 06:53:42;;;;;;;9.13;6.40;;;13.90;59.20;;;;;;5053630;28;20198;-57
2022/06/22 06:56:18;;;;;;;9.05;6.03;;;13.80;59.10;;;;;;5053405;28;20195;-60
2022/06/22 06:58:54;;;;;;;8.02;5.97;;;13.80;59.00;;;;;;5053034;28;20697;-57
2022/06/22 07:01:27;;;;;;;8.52;6.22;;;13.80;59.00;;;;;;5053295;28;20620;-58
2022/06/22 07:04:02;;;;;;;7.80;5.78;;;13.80;59.00;;;;;;5052537;28;20607;-57
2022/06/22 07:06:34;;;;;;;9.65;6.25;;;13.70;59.00;;;;;;5052891;28;20195;-55
2022/06/22 07:09:09;;;;;;;8.93;6.00;;;13.70;58.90;;;;;;5053130;28;22539;-57
2022/06/22 07:11:43;;;;;;;8.27;6.50;;;13.70;59.00;;;;;;5052658;28;20255;-59
2022/06/22 07:14:22;;;;;;;7.78;6.05;;;13.70;59.00;;;;;;5052496;28;20195;-56
2022/06/22 07:17:00;;;;;;;9.15;6.50;;;13.60;58.90;;;;;;5052040;28;20203;-55
2022/06/22 07:19:35;;;;;;;9.20;6.50;;;13.60;59.50;;;;;;5052834;28;20230;-58
2022/06/22 07:22:13;;;;;;;9.50;6.32;;;13.60;58.90;;;;;;5052568;28;20206;-58
2022/06/22 07:24:46;;;;;;;8.50;6.25;;;13.60;58.90;;;;;;5052341;28;20210;-60
2022/06/22 07:27:26;;;;;;;8.85;6.53;;;13.60;58.90;;;;;;5052373;28;20192;-58
2022/06/22 07:30:03;;;;;;;8.20;6.22;;;13.50;58.90;;;;;;5052554;28;20691;-56
2022/06/22 07:32:39;;;;;;;9.25;6.55;;;13.50;58.90;;;;;;5052006;28;20682;-56
2022/06/22 07:35:18;;;;;;;8.13;6.32;;;13.50;58.90;;;;;;5052959;28;20647;-57
2022/06/22 07:37:57;;;;;;;7.85;5.72;;;13.50;58.90;;;;;;5048142;28;20284;-58
2022/06/22 07:40:31;;;;;;;10.68;6.53;;;13.50;58.90;;;;;;5043482;28;20679;-56
2022/06/22 07:43:03;;;;;;;9.75;6.47;;;13.40;58.80;;;;;;5052087;28;20543;-57
2022/06/22 07:45:37;;;;;;;8.05;6.45;;;13.40;58.90;;;;;;5051866;28;20208;-57
2022/06/22 07:48:13;;;;;;;7.68;5.53;;;13.40;58.80;;;;;;5051765;28;20192;-56
2022/06/22 07:50:51;;;;;;;7.90;6.07;;;13.40;58.90;;;;;;5052026;28;20223;-54
2022/06/22 07:53:30;;;;;;;8.70;7.03;;;13.40;58.90;;;;;;5052206;28;20199;-56
2022/06/22 07:56:04;;;;;;;9.00;6.00;;;13.30;59.40;;;;;;5052285;28;20635;-57
2022/06/22 07:58:39;;;;;;;6.88;5.70;;;13.30;58.80;;;;;;5051634;28;20291;-57
2022/06/22 08:01:14;;;;;;;6.97;5.75;;;13.30;58.80;;;;;;5051569;28;20254;-57
2022/06/22 08:03:49;;;;;;;7.97;5.53;;;13.30;58.80;;;;;;5051679;28;20832;-56
2022/06/22 08:06:25;;;;;;;7.05;5.43;;;13.30;58.80;;;;;;5051774;28;20248;-54
2022/06/22 08:09:03;;;;;;;7.30;5.78;;;13.30;58.80;;;;;;5051466;28;20319;-56
2022/06/22 08:11:38;;;;;;;6.85;5.95;;;13.20;59.40;;;;;;5051740;28;20238;-56
2022/06/22 08:14:13;;;;;;;8.35;6.47;;;13.20;58.80;;;;;;5051547;28;20294;-56
2022/06/22 08:16:50;;;;;;;7.78;5.65;;;13.20;58.90;;;;;;5051797;28;20286;-58
2022/06/22 08:19:22;;;;;;;6.18;5.47;;;13.20;58.80;;;;;;5051377;28;20225;-56
2022/06/22 08:21:58;;;;;;;6.63;5.80;;;13.20;58.80;;;;;;5053874;28;20187;-56
2022/06/22 08:24:32;;;;;;;8.95;6.53;;;13.20;58.80;;;;;;5051489;28;20191;-56
2022/06/22 08:27:03;;;;;;;7.40;5.97;;;13.10;58.80;;;;;;5048287;28;20222;-58
2022/06/22 08:29:35;;;;;;;8.45;5.90;;;13.10;58.80;;;;;;5040413;28;20228;-56
2022/06/22 08:32:15;;;;;;;7.38;5.57;;;13.10;58.80;;;;;;5031298;28;20776;-56
2022/06/22 08:34:52;;;;;;;8.02;5.97;;;13.10;58.90;;;;;;5032082;28;20270;-56
2022/06/22 08:37:29;;;;;;;7.68;5.70;;;13.10;58.80;;;;;;5042668;28;20566;-55
2022/06/22 08:40:08;;;;;;;6.60;5.70;;;13.00;58.70;;;;;;5051361;28;20763;-57
2022/06/22 08:42:50;;;;;;;7.43;5.65;;;13.00;58.80;;;;;;5050997;28;20195;-58
2022/06/22 08:45:47;;;;;;;7.18;5.60;;;13.00;58.80;;;;;;5067910;28;20237;-56
2022/06/22 08:48:51;;;;;;;7.05;5.38;;;13.00;58.90;;;;;;5060660;28;20231;-56
2022/06/22 08:51:52;;;;;;;7.50;5.47;;;13.00;58.80;;;;;;5051466;28;20310;-55
2022/06/22 08:54:47;;;;;;;6.47;5.57;;;13.00;59.40;;;;;;5050852;28;20202;-57
2022/06/22 08:57:24;;;;;;;7.78;5.75;;;13.00;58.90;;;;;;5050895;28;20306;-57
2022/06/22 09:00:21;;;;;;;6.28;5.38;;;12.90;58.80;;;;;;5051221;28;20394;-60
2022/06/22 09:03:15;;;;;;;6.85;5.40;;;12.90;58.90;;;;;;5050868;28;20245;-57
2022/06/22 09:06:12;;;;;;;6.50;5.38;;;12.90;59.10;;;;;;5051373;28;20205;-58
2022/06/22 09:09:23;;;;;;;7.50;4.90;;;12.90;59.20;;;;;;5031578;28;20283;-55
2022/06/22 09:12:08;;;;;;;6.75;5.28;;;12.80;59.70;;;;;;5015295;28;20322;-56
2022/06/22 09:15:16;;;;;;;7.35;5.32;;;12.90;60.00;;;;;;5030980;28;20243;-58
2022/06/22 09:18:05;;;;;;;7.38;5.20;;;12.90;60.50;;;;;;5025953;28;20674;-57
2022/06/22 09:20:49;;;;;;;9.80;5.38;;;12.90;60.30;;;;;;5050503;28;20323;-58
2022/06/22 09:23:35;;;;;;;6.90;4.68;;;12.90;60.10;;;;;;5050995;28;20287;-55
2022/06/22 09:26:16;;;;;;;6.40;4.80;;;12.80;59.90;;;;;;5051527;28;20278;-61
2022/06/22 09:28:53;;;;;;;7.38;4.78;;;12.90;59.90;;;;;;5051170;28;20291;-56
2022/06/22 09:31:52;;;;;;;6.70;5.03;;;12.90;60.00;;;;;;5051140;28;20242;-55
2022/06/22 09:34:47;;;;;;;6.35;4.93;;;12.90;61.20;;;;;;5051079;28;20253;-56
2022/06/22 09:37:34;;;;;;;6.55;4.57;;;12.90;61.20;;;;;;5047819;28;20286;-52
2022/06/22 09:40:33;;;;;;;5.25;4.43;;;12.90;61.00;;;;;;5050742;28;20686;-56
2022/06/22 09:43:46;;;;;;;5.25;4.32;;;12.80;60.70;;;;;;5045957;28;20695;-53
2022/06/22 09:46:50;;;;;;;6.25;4.28;;;12.90;60.60;;;;;;5033611;28;20279;-57
2022/06/22 09:50:09;;;;;;;6.90;4.53;;;12.80;60.20;;;;;;5051104;28;20809;-60
2022/06/22 09:53:04;;;;;;;6.03;3.85;;;12.80;60.10;;;;;;4958013;28;20219;-62
2022/06/22 09:59:10;;;;;;;4.38;3.90;;;12.80;59.90;;;;;;5070120;28;20197;-59
2022/06/22 10:01:48;;;;;;;5.15;4.03;;;12.80;59.90;;;;;;5039265;28;20274;-60
2022/06/22 10:04:56;;;;;;;5.50;4.13;;;12.80;59.80;;;;;;5033704;28;20227;-57
2022/06/22 10:07:39;;;;;;;8.02;4.72;;;12.80;59.80;;;;;;5046351;28;20199;-59
2022/06/22 10:10:24;;;;;;;4.32;3.83;;;12.80;59.70;;;;;;5053708;28;20641;-56
2022/06/22 10:13:22;;;;;;;5.40;4.25;;;12.70;59.70;;;;;;5053610;28;20199;-60
2022/06/22 10:16:17;;;;;;;5.15;4.32;;;12.70;59.70;;;;;;5018664;28;20191;-58
2022/06/22 10:19:06;;;;;;;5.47;4.13;;;12.70;59.60;;;;;;5033036;28;20295;-58
2022/06/22 10:21:51;;;;;;;5.22;4.40;;;12.70;59.60;;;;;;5050015;28;20278;-61
2022/06/22 10:24:38;;;;;;;6.18;4.25;;;12.70;59.60;;;;;;5053664;28;20670;-60
2022/06/22 10:27:33;;;;;;;6.28;4.53;;;12.70;59.60;;;;;;5052883;28;20652;-57
2022/06/22 10:30:23;;;;;;;4.25;3.80;;;12.70;59.60;;;;;;5053354;28;20786;-59
2022/06/22 10:33:21;;;;;;;4.68;3.83;;;12.60;59.50;;;;;;5053431;28;20192;-62
2022/06/22 10:36:21;;;;;;;4.90;4.00;;;12.60;59.40;;;;;;5054077;28;20290;-57
2022/06/22 10:39:15;;;;;;;6.43;4.20;;;12.60;59.40;;;;;;5055569;28;20275;-59
2022/06/22 10:45:10;;;;;;;4.93;4.10;;;12.60;59.40;;;;;;5053740;28;20203;-54
2022/06/22 10:48:09;;;;;;;4.88;4.35;;;12.60;59.40;;;;;;5053037;28;20215;-54
2022/06/22 10:50:50;;;;;;;6.18;4.35;;;12.60;59.30;;;;;;5051021;28;20873;-56
2022/06/22 10:54:08;;;;;;;4.95;3.65;;;12.60;59.30;;;;;;5052487;28;20290;-57
2022/06/22 10:56:55;;;;;;;4.85;3.72;;;12.60;59.30;;;;;;5052965;28;20206;-59
2022/06/22 10:59:52;;;;;;;4.65;3.65;;;12.50;59.20;;;;;;5051723;28;20264;-54
2022/06/22 11:03:03;;;;;;;5.05;3.78;;;12.50;59.30;;;;;;5052653;28;20283;-57
2022/06/22 11:06:05;;;;;;;5.25;3.55;;;12.50;59.20;;;;;;4989693;28;20620;-54
2022/06/22 11:09:06;;;;;;;6.38;4.00;;;12.50;59.20;;;;;;5051760;28;20199;-55
2022/06/22 11:11:50;;;;;;;4.60;3.60;;;12.50;59.20;;;;;;5052208;28;20588;-56
2022/06/22 11:14:54;;;;;;;7.45;4.55;;;12.50;59.20;;;;;;5051760;28;20611;-56
2022/06/22 11:17:38;;;;;;;5.22;4.05;;;12.40;59.20;;;;;;5060448;28;20681;-61
2022/06/22 11:20:34;;;;;;;4.72;3.50;;;12.40;59.20;;;;;;5072354;28;20236;-61
2022/06/22 11:23:13;;;;;;;6.10;3.78;;;12.40;59.20;;;;;;5059722;28;20206;-61
2022/06/22 11:32:46;;;;;;;8.07;3.85;;;12.40;59.10;;;;;;5071535;28;20241;-61
2022/06/22 11:35:48;;;;;;;5.70;3.78;;;12.40;59.10;;;;;;5073131;28;20202;-60
2022/06/22 11:38:38;;;;;;;4.93;3.85;;;12.40;59.20;;;;;;5036939;28;20203;-61
2022/06/22 11:41:30;;;;;;;5.85;4.03;;;12.40;59.20;;;;;;5052451;28;20219;-56
2022/06/22 11:44:41;;;;;;;6.22;3.92;;;12.30;59.10;;;;;;5043235;28;20618;-57
2022/06/22 11:47:20;;;;;;;4.30;3.47;;;12.30;59.10;;;;;;5052268;28;20214;-58
2022/06/22 11:50:02;;;;;;;5.22;3.78;;;12.30;59.10;;;;;;5051426;28;20230;-56
2022/06/22 11:53:05;;;;;;;6.05;3.88;;;12.30;59.20;;;;;;5051259;28;20227;-56
2022/06/22 11:55:44;;;;;;;5.15;3.60;;;12.30;59.20;;;;;;5051308;28;20195;-57
2022/06/22 11:58:40;;;;;;;4.95;3.53;;;12.30;59.20;;;;;;5051549;28;20198;-59
2022/06/22 12:01:41;;;;;;;4.30;3.72;;;12.30;59.20;;;;;;5051634;28;20698;-56
2022/06/22 12:04:48;;;;;;;4.15;3.72;;;12.20;59.10;;;;;;5040949;28;20673;-57
2022/06/22 12:07:51;;;;;;;5.20;3.50;;;12.20;59.10;;;;;;5035408;28;20207;-58
2022/06/22 12:10:53;;;;;;;4.60;3.20;;;12.20;59.10;;;;;;5047261;28;20222;-58
2022/06/22 12:16:41;;;;;;;6.00;3.92;;;12.20;59.10;;;;;;5039398;28;20360;-59
2022/06/22 12:19:24;;;;;;;4.78;3.60;;;12.20;59.10;;;;;;5067756;28;20221;-59
2022/06/22 12:22:13;;;;;;;5.43;3.60;;;12.20;59.10;;;;;;5057823;28;20286;-56
2022/06/22 12:24:55;;;;;;;4.13;3.33;;;12.20;59.10;;;;;;5050141;28;20196;-57
2022/06/22 12:27:31;;;;;;;5.85;3.47;;;12.10;59.00;;;;;;5049729;28;20199;-58
2022/06/22 12:30:23;;;;;;;4.63;3.35;;;12.10;59.00;;;;;;5050142;28;20562;-57
2022/06/22 12:32:59;;;;;;;4.72;3.35;;;12.10;59.00;;;;;;5052223;28;20219;-58
2022/06/22 12:35:39;;;;;;;4.85;3.40;;;12.10;59.00;;;;;;5050391;28;20209;-59
2022/06/22 12:38:19;;;;;;;5.38;3.55;;;12.10;59.00;;;;;;5050253;28;20206;-57
2022/06/22 12:40:58;;;;;;;4.15;3.10;;;12.10;59.00;;;;;;5050308;28;20222;-58
2022/06/22 12:43:55;;;;;;;5.65;3.75;;;12.10;59.00;;;;;;5049645;28;20676;-57
2022/06/22 12:46:42;;;;;;;4.07;3.20;;;12.10;59.00;;;;;;5046839;28;20202;-56
2022/06/22 12:49:28;;;;;;;5.70;3.35;;;12.10;59.00;;;;;;5049820;28;20245;-56
2022/06/22 12:52:04;;;;;;;5.50;3.08;;;12.10;59.60;;;;;;5049887;28;20231;-57
2022/06/22 12:54:38;;;;;;;4.20;3.40;;;12.10;59.00;;;;;;5049624;28;20558;-58
2022/06/22 12:57:12;;;;;;;4.55;3.30;;;12.10;59.00;;;;;;5049315;28;20990;-57
2022/06/22 12:59:49;;;;;;;4.43;3.10;;;12.00;59.00;;;;;;5048899;28;20208;-56
2022/06/22 13:02:24;;;;;;;4.72;3.45;;;12.00;59.00;;;;;;5049473;28;20202;-56
2022/06/22 13:05:01;;;;;;;5.47;3.50;;;12.00;58.90;;;;;;5050131;28;20234;-57
2022/06/22 13:07:34;;;;;;;4.90;3.25;;;12.00;58.90;;;;;;5049518;28;20200;-57
2022/06/22 13:10:05;;;;;;;4.30;3.15;;;12.00;58.90;;;;;;5049577;28;20218;-57
2022/06/22 13:12:40;;;;;;;6.53;3.47;;;12.00;58.90;;;;;;5049334;28;20223;-57
2022/06/22 13:15:19;;;;;;;4.40;3.30;;;12.00;58.90;;;;;;5029931;28;20207;-57
2022/06/22 13:17:57;;;;;;;4.28;3.05;;;12.00;58.90;;;;;;5029929;28;20200;-57
2022/06/22 13:20:48;;;;;;;4.50;3.00;;;12.00;58.90;;;;;;5029586;28;20286;-57
2022/06/22 13:23:34;;;;;;;4.20;2.90;;;11.90;58.80;;;;;;5031480;28;20211;-57
2022/06/22 13:26:19;;;;;;;5.78;3.30;;;11.90;58.80;;;;;;5033889;28;20204;-57
2022/06/22 13:28:57;;;;;;;5.55;3.42;;;11.90;58.80;;;;;;5042652;28;20196;-57
2022/06/22 13:31:33;;;;;;;4.55;3.00;;;11.90;58.80;;;;;;5053033;28;20234;-57
2022/06/22 13:34:07;;;;;;;4.22;2.97;;;11.90;58.80;;;;;;5053785;28;20199;-57
2022/06/22 13:36:44;;;;;;;4.80;3.03;;;11.90;58.90;;;;;;5054015;28;20206;-57
2022/06/22 13:39:29;;;;;;;3.90;2.95;;;11.90;58.90;;;;;;5053293;28;20215;-58
2022/06/22 13:42:22;;;;;;;4.60;3.22;;;11.90;58.90;;;;;;5053008;28;20192;-57
2022/06/22 13:45:27;;;;;;;5.10;2.90;;;11.90;58.90;;;;;;5052984;28;20206;-57
2022/06/22 13:48:17;;;;;;;4.63;2.90;;;11.90;58.80;;;;;;5052757;28;20292;-57
2022/06/22 13:51:24;;;;;;;3.85;3.00;;;11.90;58.80;;;;;;5052797;28;20223;-58
2022/06/22 13:54:27;;;;;;;4.30;2.70;;;11.90;58.80;;;;;;4991031;28;20244;-59
2022/06/22 13:57:04;;;;;;;5.70;3.20;;;11.80;58.70;;;;;;5053056;28;20197;-58
2022/06/22 13:59:41;;;;;;;3.92;2.67;;;11.80;58.70;;;;;;5052048;28;20563;-57
2022/06/22 14:02:22;;;;;;;5.03;3.28;;;11.80;58.70;;;;;;5053032;28;20221;-59
2022/06/22 14:04:57;;;;;;;4.55;3.00;;;11.80;58.70;;;;;;5052542;28;20675;-57
2022/06/22 14:07:33;;;;;;;3.97;3.03;;;11.80;58.70;;;;;;5052451;28;20203;-58
2022/06/22 14:10:17;;;;;;;4.75;2.95;;;11.80;58.70;;;;;;5052623;28;20230;-58
2022/06/22 14:12:51;;;;;;;4.97;2.72;;;11.80;58.80;;;;;;5052492;28;20234;-58
2022/06/22 14:15:28;;;;;;;4.70;2.65;;;11.80;58.70;;;;;;5052396;28;20207;-57
2022/06/22 14:18:03;;;;;;;3.53;2.88;;;11.70;58.70;;;;;;5052097;28;20192;-57
2022/06/22 14:20:43;;;;;;;4.63;3.08;;;11.70;58.70;;;;;;5054887;28;20214;-57
2022/06/22 14:23:19;;;;;;;3.83;2.88;;;11.70;58.70;;;;;;5052622;28;20199;-58
2022/06/22 14:25:55;;;;;;;4.53;2.58;;;11.70;58.60;;;;;;5052204;28;20553;-57
2022/06/22 14:28:32;;;;;;;3.60;2.90;;;11.70;58.60;;;;;;5051789;28;20569;-57
2022/06/22 14:31:16;;;;;;;4.43;2.78;;;11.70;58.70;;;;;;5052492;28;20215;-55